sensor_id;sensor_type;location;lat;lon;timestamp;temperature;humidity
8914;DHT22;4492;48.736;9.092;2022-09-16T00:00:12;13.10;99.90
8914;DHT22;4492;48.736;9.092;2022-09-16T00:02:37;13.10;99.90
8914;DHT22;4492;48.736;9.092;2022-09-16T00:05:03;13.00;99.90
8914;DHT22;4492;48.736;9.092;2022-09-16T00:07:29;13.10;99.90
8914;DHT22;4492;48.736;9.092;2022-09-16T00:09:55;13.00;99.90
8914;DHT22;4492;48.736;9.092;2022-09-16T00:12:20;13.00;99.90
8914;DHT22;4492;48.736;9.092;2022-09-16T00:14:46;13.10;99.90
8914;DHT22;4492;48.736;9.092;2022-09-16T00:17:12;13.10;99.90
8914;DHT22;4492;48.736;9.092;2022-09-16T00:19:38;13.10;99.90
8914;DHT22;4492;48.736;9.092;2022-09-16T00:22:03;13.10;99.90
8914;DHT22;4492;48.736;9.092;2022-09-16T00:24:29;13.00;99.90
8914;DHT22;4492;48.736;9.092;2022-09-16T00:26:55;13.00;99.90
8914;DHT22;4492;48.736;9.092;2022-09-16T00:29:21;13.00;99.90
8914;DHT22;4492;48.736;9.092;2022-09-16T00:31:46;12.90;99.90
8914;DHT22;4492;48.736;9.092;2022-09-16T00:34:12;12.80;99.90
8914;DHT22;4492;48.736;9.092;2022-09-16T00:36:37;12.70;99.90
8914;DHT22;4492;48.736;9.092;2022-09-16T00:39:03;12.70;99.90
8914;DHT22;4492;48.736;9.092;2022-09-16T00:41:30;12.70;99.90
8914;DHT22;4492;48.736;9.092;2022-09-16T00:44:00;12.60;99.90
8914;DHT22;4492;48.736;9.092;2022-09-16T00:46:31;12.60;99.90
8914;DHT22;4492;48.736;9.092;2022-09-16T00:49:03;12.60;99.90
8914;DHT22;4492;48.736;9.092;2022-09-16T00:51:29;12.60;99.90
8914;DHT22;4492;48.736;9.092;2022-09-16T00:54:00;12.50;99.90
8914;DHT22;4492;48.736;9.092;2022-09-16T00:56:28;12.50;99.90
8914;DHT22;4492;48.736;9.092;2022-09-16T00:59:02;12.50;99.90
8914;DHT22;4492;48.736;9.092;2022-09-16T01:01:32;12.50;99.90
8914;DHT22;4492;48.736;9.092;2022-09-16T01:04:05;12.60;99.90
8914;DHT22;4492;48.736;9.092;2022-09-16T01:06:36;12.60;99.90
8914;DHT22;4492;48.736;9.092;2022-09-16T01:09:02;12.60;99.90
8914;DHT22;4492;48.736;9.092;2022-09-16T01:11:28;12.50;99.90
8914;DHT22;4492;48.736;9.092;2022-09-16T01:13:54;12.40;99.90
8914;DHT22;4492;48.736;9.092;2022-09-16T01:16:43;12.40;99.90
8914;DHT22;4492;48.736;9.092;2022-09-16T01:25:18;12.50;99.90
8914;DHT22;4492;48.736;9.092;2022-09-16T01:28:13;12.40;99.90
8914;DHT22;4492;48.736;9.092;2022-09-16T01:31:04;12.40;99.90
8914;DHT22;4492;48.736;9.092;2022-09-16T01:33:51;12.30;99.90
8914;DHT22;4492;48.736;9.092;2022-09-16T01:39:54;12.10;99.90
8914;DHT22;4492;48.736;9.092;2022-09-16T01:42:30;12.10;99.90
8914;DHT22;4492;48.736;9.092;2022-09-16T01:45:15;12.00;99.90
8914;DHT22;4492;48.736;9.092;2022-09-16T01:50:19;12.00;99.90
8914;DHT22;4492;48.736;9.092;2022-09-16T01:53:05;11.90;99.90
8914;DHT22;4492;48.736;9.092;2022-09-16T01:56:03;11.90;99.90
8914;DHT22;4492;48.736;9.092;2022-09-16T01:59:02;11.90;99.90
8914;DHT22;4492;48.736;9.092;2022-09-16T02:01:34;11.90;99.90
8914;DHT22;4492;48.736;9.092;2022-09-16T02:04:05;11.90;99.90
8914;DHT22;4492;48.736;9.092;2022-09-16T02:06:32;11.90;99.90
8914;DHT22;4492;48.736;9.092;2022-09-16T02:09:02;11.90;99.90
8914;DHT22;4492;48.736;9.092;2022-09-16T02:11:29;11.80;99.90
8914;DHT22;4492;48.736;9.092;2022-09-16T02:14:12;11.80;99.90
8914;DHT22;4492;48.736;9.092;2022-09-16T02:16:55;11.80;99.90
8914;DHT22;4492;48.736;9.092;2022-09-16T02:19:26;11.80;99.90
8914;DHT22;4492;48.736;9.092;2022-09-16T02:21:54;11.80;99.90
8914;DHT22;4492;48.736;9.092;2022-09-16T02:24:22;11.80;99.90
8914;DHT22;4492;48.736;9.092;2022-09-16T02:26:57;11.80;99.90
8914;DHT22;4492;48.736;9.092;2022-09-16T02:29:32;11.80;99.90
8914;DHT22;4492;48.736;9.092;2022-09-16T02:32:02;11.80;99.90
8914;DHT22;4492;48.736;9.092;2022-09-16T02:34:35;11.80;99.90
8914;DHT22;4492;48.736;9.092;2022-09-16T02:37:07;11.70;99.90
8914;DHT22;4492;48.736;9.092;2022-09-16T02:39:37;11.70;99.90
8914;DHT22;4492;48.736;9.092;2022-09-16T02:42:04;11.70;99.90
8914;DHT22;4492;48.736;9.092;2022-09-16T02:44:30;11.70;99.90
8914;DHT22;4492;48.736;9.092;2022-09-16T02:49:51;11.80;99.90
8914;DHT22;4492;48.736;9.092;2022-09-16T02:54:54;11.80;99.90
8914;DHT22;4492;48.736;9.092;2022-09-16T02:57:21;11.80;99.90
8914;DHT22;4492;48.736;9.092;2022-09-16T02:59:47;11.80;99.90
8914;DHT22;4492;48.736;9.092;2022-09-16T03:02:13;11.80;99.90
8914;DHT22;4492;48.736;9.092;2022-09-16T03:04:39;11.80;99.90
8914;DHT22;4492;48.736;9.092;2022-09-16T03:07:06;11.80;99.90
8914;DHT22;4492;48.736;9.092;2022-09-16T03:09:35;11.80;99.90
8914;DHT22;4492;48.736;9.092;2022-09-16T03:17:49;11.70;99.90
8914;DHT22;4492;48.736;9.092;2022-09-16T03:31:12;11.70;99.90
8914;DHT22;4492;48.736;9.092;2022-09-16T03:33:48;11.70;99.90
8914;DHT22;4492;48.736;9.092;2022-09-16T03:36:18;11.70;99.90
8914;DHT22;4492;48.736;9.092;2022-09-16T03:38:45;11.70;99.90
8914;DHT22;4492;48.736;9.092;2022-09-16T03:41:11;11.70;99.90
8914;DHT22;4492;48.736;9.092;2022-09-16T03:43:37;11.70;99.90
8914;DHT22;4492;48.736;9.092;2022-09-16T03:46:09;11.70;99.90
8914;DHT22;4492;48.736;9.092;2022-09-16T03:48:35;11.70;99.90
8914;DHT22;4492;48.736;9.092;2022-09-16T03:51:01;11.70;99.90
8914;DHT22;4492;48.736;9.092;2022-09-16T03:53:26;11.80;99.90
8914;DHT22;4492;48.736;9.092;2022-09-16T03:55:52;11.80;99.90
8914;DHT22;4492;48.736;9.092;2022-09-16T03:58:17;11.70;99.90
8914;DHT22;4492;48.736;9.092;2022-09-16T04:00:47;11.80;99.90
8914;DHT22;4492;48.736;9.092;2022-09-16T04:03:13;11.70;99.90
8914;DHT22;4492;48.736;9.092;2022-09-16T04:05:38;11.80;99.90
8914;DHT22;4492;48.736;9.092;2022-09-16T04:08:04;11.80;99.90
8914;DHT22;4492;48.736;9.092;2022-09-16T04:10:29;11.80;99.90
8914;DHT22;4492;48.736;9.092;2022-09-16T04:12:56;11.80;99.90
8914;DHT22;4492;48.736;9.092;2022-09-16T04:15:22;11.80;99.90
8914;DHT22;4492;48.736;9.092;2022-09-16T04:17:48;11.70;99.90
8914;DHT22;4492;48.736;9.092;2022-09-16T04:20:13;11.70;99.90
8914;DHT22;4492;48.736;9.092;2022-09-16T04:22:39;11.70;99.90
8914;DHT22;4492;48.736;9.092;2022-09-16T04:25:05;11.70;99.90
8914;DHT22;4492;48.736;9.092;2022-09-16T04:27:31;11.70;99.90
8914;DHT22;4492;48.736;9.092;2022-09-16T04:29:56;11.70;99.90
8914;DHT22;4492;48.736;9.092;2022-09-16T04:32:23;11.60;99.90
8914;DHT22;4492;48.736;9.092;2022-09-16T04:34:48;11.60;99.90
8914;DHT22;4492;48.736;9.092;2022-09-16T04:37:14;11.60;99.90
8914;DHT22;4492;48.736;9.092;2022-09-16T04:39:40;11.60;99.90
8914;DHT22;4492;48.736;9.092;2022-09-16T04:42:05;11.60;99.90
8914;DHT22;4492;48.736;9.092;2022-09-16T04:44:31;11.60;99.90
8914;DHT22;4492;48.736;9.092;2022-09-16T04:46:57;11.60;99.90
8914;DHT22;4492;48.736;9.092;2022-09-16T04:49:22;11.60;99.90
8914;DHT22;4492;48.736;9.092;2022-09-16T04:51:48;11.60;99.90
8914;DHT22;4492;48.736;9.092;2022-09-16T04:54:15;11.60;99.90
8914;DHT22;4492;48.736;9.092;2022-09-16T04:56:40;11.60;99.90
8914;DHT22;4492;48.736;9.092;2022-09-16T04:59:06;11.60;99.90
8914;DHT22;4492;48.736;9.092;2022-09-16T05:01:34;11.70;99.90
8914;DHT22;4492;48.736;9.092;2022-09-16T05:04:03;11.70;99.90
8914;DHT22;4492;48.736;9.092;2022-09-16T05:06:31;11.70;99.90
8914;DHT22;4492;48.736;9.092;2022-09-16T05:08:58;11.70;99.90
8914;DHT22;4492;48.736;9.092;2022-09-16T05:11:28;11.80;99.90
8914;DHT22;4492;48.736;9.092;2022-09-16T05:13:57;11.80;99.90
8914;DHT22;4492;48.736;9.092;2022-09-16T05:16:23;11.80;99.90
8914;DHT22;4492;48.736;9.092;2022-09-16T05:18:50;11.80;99.90
8914;DHT22;4492;48.736;9.092;2022-09-16T05:21:19;11.70;99.90
8914;DHT22;4492;48.736;9.092;2022-09-16T05:23:46;11.70;99.90
8914;DHT22;4492;48.736;9.092;2022-09-16T05:26:14;11.70;99.90
8914;DHT22;4492;48.736;9.092;2022-09-16T05:28:40;11.60;99.90
8914;DHT22;4492;48.736;9.092;2022-09-16T05:31:07;11.60;99.90
8914;DHT22;4492;48.736;9.092;2022-09-16T05:33:33;11.60;99.90
8914;DHT22;4492;48.736;9.092;2022-09-16T05:36:08;11.50;99.90
8914;DHT22;4492;48.736;9.092;2022-09-16T05:38:34;11.50;99.90
8914;DHT22;4492;48.736;9.092;2022-09-16T05:41:01;11.50;99.90
8914;DHT22;4492;48.736;9.092;2022-09-16T05:43:26;11.40;99.90
8914;DHT22;4492;48.736;9.092;2022-09-16T05:45:53;11.40;99.90
8914;DHT22;4492;48.736;9.092;2022-09-16T05:48:19;11.40;99.90
8914;DHT22;4492;48.736;9.092;2022-09-16T05:50:57;11.40;99.90
8914;DHT22;4492;48.736;9.092;2022-09-16T05:53:24;11.40;99.90
8914;DHT22;4492;48.736;9.092;2022-09-16T05:56:14;11.40;99.90
8914;DHT22;4492;48.736;9.092;2022-09-16T05:58:40;11.40;99.90
8914;DHT22;4492;48.736;9.092;2022-09-16T06:01:18;11.40;99.90
8914;DHT22;4492;48.736;9.092;2022-09-16T06:03:45;11.40;99.90
8914;DHT22;4492;48.736;9.092;2022-09-16T06:08:47;11.30;99.90
8914;DHT22;4492;48.736;9.092;2022-09-16T06:11:13;11.30;99.90
8914;DHT22;4492;48.736;9.092;2022-09-16T06:13:39;11.30;99.90
8914;DHT22;4492;48.736;9.092;2022-09-16T06:16:06;11.20;99.90
8914;DHT22;4492;48.736;9.092;2022-09-16T06:18:33;11.20;99.90
8914;DHT22;4492;48.736;9.092;2022-09-16T06:21:03;11.30;99.90
8914;DHT22;4492;48.736;9.092;2022-09-16T06:23:29;11.20;99.90
8914;DHT22;4492;48.736;9.092;2022-09-16T06:26:06;11.20;99.90
8914;DHT22;4492;48.736;9.092;2022-09-16T06:28:32;11.30;99.90
8914;DHT22;4492;48.736;9.092;2022-09-16T06:31:07;11.30;99.90
8914;DHT22;4492;48.736;9.092;2022-09-16T06:33:33;11.30;99.90
8914;DHT22;4492;48.736;9.092;2022-09-16T06:38:33;11.40;99.90
8914;DHT22;4492;48.736;9.092;2022-09-16T06:41:06;11.30;99.90
8914;DHT22;4492;48.736;9.092;2022-09-16T06:43:32;11.40;99.90
8914;DHT22;4492;48.736;9.092;2022-09-16T06:46:04;11.40;99.90
8914;DHT22;4492;48.736;9.092;2022-09-16T06:48:32;11.40;99.90
8914;DHT22;4492;48.736;9.092;2022-09-16T06:51:03;11.40;99.90
8914;DHT22;4492;48.736;9.092;2022-09-16T06:53:29;11.40;99.90
8914;DHT22;4492;48.736;9.092;2022-09-16T06:55:59;11.30;99.90
8914;DHT22;4492;48.736;9.092;2022-09-16T06:58:25;11.30;99.90
8914;DHT22;4492;48.736;9.092;2022-09-16T07:00:50;11.30;99.90
8914;DHT22;4492;48.736;9.092;2022-09-16T07:03:16;11.20;99.90
8914;DHT22;4492;48.736;9.092;2022-09-16T07:05:42;11.20;99.90
8914;DHT22;4492;48.736;9.092;2022-09-16T07:08:07;11.20;99.90
8914;DHT22;4492;48.736;9.092;2022-09-16T07:10:33;11.20;99.90
8914;DHT22;4492;48.736;9.092;2022-09-16T07:12:58;11.20;99.90
8914;DHT22;4492;48.736;9.092;2022-09-16T07:15:24;11.20;99.90
8914;DHT22;4492;48.736;9.092;2022-09-16T07:17:53;11.20;99.90
8914;DHT22;4492;48.736;9.092;2022-09-16T07:20:19;11.20;99.90
8914;DHT22;4492;48.736;9.092;2022-09-16T07:22:45;11.30;99.90
8914;DHT22;4492;48.736;9.092;2022-09-16T07:25:15;11.30;99.90
8914;DHT22;4492;48.736;9.092;2022-09-16T07:27:40;11.30;99.90
8914;DHT22;4492;48.736;9.092;2022-09-16T07:30:07;11.30;99.90
8914;DHT22;4492;48.736;9.092;2022-09-16T07:32:32;11.30;99.90
8914;DHT22;4492;48.736;9.092;2022-09-16T07:34:58;11.30;99.90
8914;DHT22;4492;48.736;9.092;2022-09-16T07:37:23;11.40;99.90
8914;DHT22;4492;48.736;9.092;2022-09-16T07:39:49;11.40;99.90
8914;DHT22;4492;48.736;9.092;2022-09-16T07:42:15;11.40;99.90
8914;DHT22;4492;48.736;9.092;2022-09-16T07:44:40;11.40;99.90
8914;DHT22;4492;48.736;9.092;2022-09-16T07:47:06;11.40;99.90
8914;DHT22;4492;48.736;9.092;2022-09-16T07:49:31;11.40;99.90
8914;DHT22;4492;48.736;9.092;2022-09-16T07:51:57;11.40;99.90
8914;DHT22;4492;48.736;9.092;2022-09-16T07:54:22;11.40;99.90
8914;DHT22;4492;48.736;9.092;2022-09-16T07:56:48;11.40;99.90
8914;DHT22;4492;48.736;9.092;2022-09-16T07:59:16;11.40;99.90
8914;DHT22;4492;48.736;9.092;2022-09-16T08:01:42;11.40;99.90
8914;DHT22;4492;48.736;9.092;2022-09-16T08:04:08;11.30;99.90
8914;DHT22;4492;48.736;9.092;2022-09-16T08:06:37;11.30;99.90
8914;DHT22;4492;48.736;9.092;2022-09-16T08:09:03;11.40;99.90
8914;DHT22;4492;48.736;9.092;2022-09-16T08:11:29;11.50;99.90
8914;DHT22;4492;48.736;9.092;2022-09-16T08:13:57;11.60;99.90
8914;DHT22;4492;48.736;9.092;2022-09-16T08:16:24;11.70;99.90
8914;DHT22;4492;48.736;9.092;2022-09-16T08:18:50;11.70;99.90
8914;DHT22;4492;48.736;9.092;2022-09-16T08:21:22;11.90;99.90
8914;DHT22;4492;48.736;9.092;2022-09-16T08:23:48;12.00;99.90
8914;DHT22;4492;48.736;9.092;2022-09-16T08:26:17;12.20;99.90
8914;DHT22;4492;48.736;9.092;2022-09-16T08:28:44;12.30;99.90
8914;DHT22;4492;48.736;9.092;2022-09-16T08:31:11;12.50;99.90
8914;DHT22;4492;48.736;9.092;2022-09-16T08:33:41;12.50;99.90
8914;DHT22;4492;48.736;9.092;2022-09-16T08:36:11;12.50;99.90
8914;DHT22;4492;48.736;9.092;2022-09-16T08:38:39;12.50;99.90
8914;DHT22;4492;48.736;9.092;2022-09-16T08:41:30;12.50;99.90
8914;DHT22;4492;48.736;9.092;2022-09-16T08:46:59;12.40;99.90
8914;DHT22;4492;48.736;9.092;2022-09-16T08:49:43;12.40;99.90
8914;DHT22;4492;48.736;9.092;2022-09-16T08:52:20;12.40;99.90
8914;DHT22;4492;48.736;9.092;2022-09-16T08:54:51;12.40;99.90
8914;DHT22;4492;48.736;9.092;2022-09-16T08:57:23;12.50;99.90
8914;DHT22;4492;48.736;9.092;2022-09-16T09:00:00;12.50;99.90
8914;DHT22;4492;48.736;9.092;2022-09-16T09:02:38;12.50;99.90
8914;DHT22;4492;48.736;9.092;2022-09-16T09:05:42;12.50;99.90
8914;DHT22;4492;48.736;9.092;2022-09-16T09:11:29;12.70;99.90
8914;DHT22;4492;48.736;9.092;2022-09-16T09:14:16;12.90;99.90
8914;DHT22;4492;48.736;9.092;2022-09-16T09:22:26;13.10;99.90
8914;DHT22;4492;48.736;9.092;2022-09-16T09:30:39;13.20;99.90
8914;DHT22;4492;48.736;9.092;2022-09-16T09:38:43;13.40;99.90
8914;DHT22;4492;48.736;9.092;2022-09-16T09:41:15;13.40;99.90
8914;DHT22;4492;48.736;9.092;2022-09-16T09:43:44;13.30;99.90
8914;DHT22;4492;48.736;9.092;2022-09-16T09:46:30;13.30;99.90
8914;DHT22;4492;48.736;9.092;2022-09-16T09:49:32;13.50;99.90
8914;DHT22;4492;48.736;9.092;2022-09-16T09:52:06;13.60;99.90
8914;DHT22;4492;48.736;9.092;2022-09-16T09:54:36;13.60;99.90
8914;DHT22;4492;48.736;9.092;2022-09-16T09:57:13;13.70;99.90
8914;DHT22;4492;48.736;9.092;2022-09-16T10:00:30;13.60;99.90
8914;DHT22;4492;48.736;9.092;2022-09-16T10:02:38;13.60;99.90
8914;DHT22;4492;48.736;9.092;2022-09-16T10:05:04;13.60;99.90
8914;DHT22;4492;48.736;9.092;2022-09-16T10:07:35;13.60;99.90
8914;DHT22;4492;48.736;9.092;2022-09-16T10:10:14;13.60;99.90
8914;DHT22;4492;48.736;9.092;2022-09-16T10:12:40;13.50;99.90
8914;DHT22;4492;48.736;9.092;2022-09-16T10:15:26;13.40;99.90
8914;DHT22;4492;48.736;9.092;2022-09-16T10:17:53;13.30;99.90
8914;DHT22;4492;48.736;9.092;2022-09-16T10:20:34;13.30;99.90
8914;DHT22;4492;48.736;9.092;2022-09-16T10:23:08;13.30;99.90
8914;DHT22;4492;48.736;9.092;2022-09-16T10:25:34;13.30;99.90
8914;DHT22;4492;48.736;9.092;2022-09-16T10:28:03;13.30;99.90
8914;DHT22;4492;48.736;9.092;2022-09-16T10:30:31;13.40;99.90
8914;DHT22;4492;48.736;9.092;2022-09-16T10:33:12;13.60;99.90
8914;DHT22;4492;48.736;9.092;2022-09-16T10:35:39;13.80;99.90
8914;DHT22;4492;48.736;9.092;2022-09-16T10:38:21;14.10;99.90
8914;DHT22;4492;48.736;9.092;2022-09-16T10:40:54;14.30;99.90
8914;DHT22;4492;48.736;9.092;2022-09-16T10:43:23;14.50;99.90
8914;DHT22;4492;48.736;9.092;2022-09-16T10:45:51;14.60;99.90
8914;DHT22;4492;48.736;9.092;2022-09-16T10:48:19;14.70;99.90
8914;DHT22;4492;48.736;9.092;2022-09-16T10:51:00;14.60;99.90
8914;DHT22;4492;48.736;9.092;2022-09-16T10:53:37;14.60;99.90
8914;DHT22;4492;48.736;9.092;2022-09-16T10:56:05;14.50;99.90
8914;DHT22;4492;48.736;9.092;2022-09-16T10:58:32;14.40;99.90
8914;DHT22;4492;48.736;9.092;2022-09-16T11:13:04;14.20;99.90
8914;DHT22;4492;48.736;9.092;2022-09-16T11:17:56;14.30;99.90
8914;DHT22;4492;48.736;9.092;2022-09-16T11:29:18;14.10;99.90
8914;DHT22;4492;48.736;9.092;2022-09-16T11:32:07;13.80;99.90
8914;DHT22;4492;48.736;9.092;2022-09-16T11:37:26;13.70;99.90
8914;DHT22;4492;48.736;9.092;2022-09-16T11:45:47;14.20;99.90
8914;DHT22;4492;48.736;9.092;2022-09-16T11:59:09;15.10;99.90
8914;DHT22;4492;48.736;9.092;2022-09-16T12:01:43;15.20;99.90
8914;DHT22;4492;48.736;9.092;2022-09-16T12:04:22;15.30;99.90
8914;DHT22;4492;48.736;9.092;2022-09-16T12:07:01;15.40;99.90
8914;DHT22;4492;48.736;9.092;2022-09-16T12:09:40;15.40;99.90
8914;DHT22;4492;48.736;9.092;2022-09-16T12:12:20;15.30;99.90
8914;DHT22;4492;48.736;9.092;2022-09-16T12:14:54;15.20;99.90
8914;DHT22;4492;48.736;9.092;2022-09-16T12:17:27;15.20;99.90
8914;DHT22;4492;48.736;9.092;2022-09-16T12:20:18;15.30;99.90
8914;DHT22;4492;48.736;9.092;2022-09-16T12:22:54;15.30;99.90
8914;DHT22;4492;48.736;9.092;2022-09-16T12:25:45;15.40;99.90
8914;DHT22;4492;48.736;9.092;2022-09-16T12:28:22;15.50;99.90
8914;DHT22;4492;48.736;9.092;2022-09-16T12:33:35;15.90;99.90
8914;DHT22;4492;48.736;9.092;2022-09-16T12:36:07;16.00;99.90
8914;DHT22;4492;48.736;9.092;2022-09-16T12:38:34;16.00;99.90
8914;DHT22;4492;48.736;9.092;2022-09-16T12:41:28;16.00;99.90
8914;DHT22;4492;48.736;9.092;2022-09-16T12:47:12;15.80;99.90
8914;DHT22;4492;48.736;9.092;2022-09-16T12:52:40;15.60;99.90
8914;DHT22;4492;48.736;9.092;2022-09-16T13:04:00;15.50;99.90
8914;DHT22;4492;48.736;9.092;2022-09-16T13:06:33;15.70;99.90
8914;DHT22;4492;48.736;9.092;2022-09-16T13:09:22;15.60;99.90
8914;DHT22;4492;48.736;9.092;2022-09-16T13:12:02;15.50;99.90
8914;DHT22;4492;48.736;9.092;2022-09-16T13:14:32;15.70;99.90
8914;DHT22;4492;48.736;9.092;2022-09-16T13:17:00;15.70;99.90
8914;DHT22;4492;48.736;9.092;2022-09-16T13:24:39;16.00;99.90
8914;DHT22;4492;48.736;9.092;2022-09-16T13:27:39;16.00;99.90
8914;DHT22;4492;48.736;9.092;2022-09-16T13:37:52;16.00;99.90
8914;DHT22;4492;48.736;9.092;2022-09-16T13:40:29;16.00;97.80
8914;DHT22;4492;48.736;9.092;2022-09-16T13:45:41;16.10;97.20
8914;DHT22;4492;48.736;9.092;2022-09-16T13:48:20;16.00;97.10
8914;DHT22;4492;48.736;9.092;2022-09-16T13:50:53;16.00;96.60
8914;DHT22;4492;48.736;9.092;2022-09-16T13:53:32;16.00;96.30
8914;DHT22;4492;48.736;9.092;2022-09-16T13:56:06;16.10;95.50
8914;DHT22;4492;48.736;9.092;2022-09-16T13:59:59;16.10;95.10
8914;DHT22;4492;48.736;9.092;2022-09-16T14:01:57;16.00;96.10
8914;DHT22;4492;48.736;9.092;2022-09-16T14:07:17;15.90;96.30
8914;DHT22;4492;48.736;9.092;2022-09-16T14:14:58;15.70;97.30
8914;DHT22;4492;48.736;9.092;2022-09-16T14:17:42;15.70;97.40
8914;DHT22;4492;48.736;9.092;2022-09-16T14:20:17;15.60;97.60
8914;DHT22;4492;48.736;9.092;2022-09-16T14:22:44;15.50;97.80
8914;DHT22;4492;48.736;9.092;2022-09-16T14:25:27;15.50;97.80
8914;DHT22;4492;48.736;9.092;2022-09-16T14:28:14;15.80;97.00
8914;DHT22;4492;48.736;9.092;2022-09-16T14:33:34;16.00;95.50
8914;DHT22;4492;48.736;9.092;2022-09-16T14:36:09;16.10;95.30
8914;DHT22;4492;48.736;9.092;2022-09-16T14:38:43;15.90;96.00
8914;DHT22;4492;48.736;9.092;2022-09-16T14:41:09;15.90;96.50
8914;DHT22;4492;48.736;9.092;2022-09-16T14:43:38;15.80;96.10
8914;DHT22;4492;48.736;9.092;2022-09-16T14:46:05;15.80;96.70
8914;DHT22;4492;48.736;9.092;2022-09-16T14:48:34;15.80;96.40
8914;DHT22;4492;48.736;9.092;2022-09-16T14:51:01;15.80;96.40
8914;DHT22;4492;48.736;9.092;2022-09-16T14:53:32;15.80;96.90
8914;DHT22;4492;48.736;9.092;2022-09-16T14:56:00;15.80;97.00
8914;DHT22;4492;48.736;9.092;2022-09-16T14:58:28;15.80;96.40
8914;DHT22;4492;48.736;9.092;2022-09-16T15:01:01;15.80;97.50
8914;DHT22;4492;48.736;9.092;2022-09-16T15:05:59;15.90;96.50
8914;DHT22;4492;48.736;9.092;2022-09-16T15:08:48;15.90;96.10
8914;DHT22;4492;48.736;9.092;2022-09-16T15:11:18;15.90;95.90
8914;DHT22;4492;48.736;9.092;2022-09-16T15:13:46;15.90;96.10
8914;DHT22;4492;48.736;9.092;2022-09-16T15:16:14;15.70;95.90
8914;DHT22;4492;48.736;9.092;2022-09-16T15:19:02;15.50;95.90
8914;DHT22;4492;48.736;9.092;2022-09-16T15:21:31;15.30;96.40
8914;DHT22;4492;48.736;9.092;2022-09-16T15:23:59;15.30;96.50
8914;DHT22;4492;48.736;9.092;2022-09-16T15:29:05;15.30;95.80
8914;DHT22;4492;48.736;9.092;2022-09-16T15:31:37;15.50;95.40
8914;DHT22;4492;48.736;9.092;2022-09-16T15:36:56;15.70;95.40
8914;DHT22;4492;48.736;9.092;2022-09-16T15:42:11;16.00;94.00
8914;DHT22;4492;48.736;9.092;2022-09-16T15:47:27;16.00;93.40
8914;DHT22;4492;48.736;9.092;2022-09-16T15:50:06;16.00;94.30
8914;DHT22;4492;48.736;9.092;2022-09-16T15:52:47;15.90;93.90
8914;DHT22;4492;48.736;9.092;2022-09-16T15:55:34;15.70;94.10
8914;DHT22;4492;48.736;9.092;2022-09-16T15:58:52;15.40;94.90
8914;DHT22;4492;48.736;9.092;2022-09-16T16:01:03;15.20;95.40
8914;DHT22;4492;48.736;9.092;2022-09-16T16:06:09;15.00;95.40
8914;DHT22;4492;48.736;9.092;2022-09-16T16:08:45;14.90;95.80
8914;DHT22;4492;48.736;9.092;2022-09-16T16:11:14;14.70;96.00
8914;DHT22;4492;48.736;9.092;2022-09-16T16:13:40;14.70;96.50
8914;DHT22;4492;48.736;9.092;2022-09-16T16:16:06;14.60;97.00
8914;DHT22;4492;48.736;9.092;2022-09-16T16:18:33;14.60;97.50
8914;DHT22;4492;48.736;9.092;2022-09-16T16:21:03;14.70;97.50
8914;DHT22;4492;48.736;9.092;2022-09-16T16:23:29;14.70;97.70
8914;DHT22;4492;48.736;9.092;2022-09-16T16:25:55;14.70;97.10
8914;DHT22;4492;48.736;9.092;2022-09-16T16:28:20;14.80;97.00
8914;DHT22;4492;48.736;9.092;2022-09-16T16:30:46;14.90;96.90
8914;DHT22;4492;48.736;9.092;2022-09-16T16:33:12;14.70;96.50
8914;DHT22;4492;48.736;9.092;2022-09-16T16:35:37;14.50;97.70
8914;DHT22;4492;48.736;9.092;2022-09-16T16:38:03;14.20;97.70
8914;DHT22;4492;48.736;9.092;2022-09-16T16:40:28;14.10;97.70
8914;DHT22;4492;48.736;9.092;2022-09-16T16:42:55;14.00;97.90
8914;DHT22;4492;48.736;9.092;2022-09-16T16:45:20;13.80;98.80
8914;DHT22;4492;48.736;9.092;2022-09-16T16:47:46;13.70;98.70
8914;DHT22;4492;48.736;9.092;2022-09-16T16:50:12;13.70;98.90
8914;DHT22;4492;48.736;9.092;2022-09-16T16:52:37;13.60;99.20
8914;DHT22;4492;48.736;9.092;2022-09-16T16:55:04;13.60;99.50
8914;DHT22;4492;48.736;9.092;2022-09-16T16:57:30;13.40;99.70
8914;DHT22;4492;48.736;9.092;2022-09-16T16:59:55;13.30;99.90
8914;DHT22;4492;48.736;9.092;2022-09-16T17:02:21;13.20;99.90
8914;DHT22;4492;48.736;9.092;2022-09-16T17:04:46;13.10;99.90
8914;DHT22;4492;48.736;9.092;2022-09-16T17:07:12;13.00;99.90
8914;DHT22;4492;48.736;9.092;2022-09-16T17:09:37;12.90;99.90
8914;DHT22;4492;48.736;9.092;2022-09-16T17:12:04;12.80;99.90
8914;DHT22;4492;48.736;9.092;2022-09-16T17:14:30;12.70;99.90
8914;DHT22;4492;48.736;9.092;2022-09-16T17:16:57;12.60;99.90
8914;DHT22;4492;48.736;9.092;2022-09-16T17:19:24;12.50;99.90
8914;DHT22;4492;48.736;9.092;2022-09-16T17:21:50;12.40;99.90
8914;DHT22;4492;48.736;9.092;2022-09-16T17:24:17;12.40;99.90
8914;DHT22;4492;48.736;9.092;2022-09-16T17:26:43;12.40;99.90
8914;DHT22;4492;48.736;9.092;2022-09-16T17:29:09;12.30;99.90
8914;DHT22;4492;48.736;9.092;2022-09-16T17:31:36;12.40;99.90
8914;DHT22;4492;48.736;9.092;2022-09-16T17:34:07;12.40;99.90
8914;DHT22;4492;48.736;9.092;2022-09-16T17:36:35;12.40;99.90
8914;DHT22;4492;48.736;9.092;2022-09-16T17:39:07;12.30;99.90
8914;DHT22;4492;48.736;9.092;2022-09-16T17:41:35;12.20;99.90
8914;DHT22;4492;48.736;9.092;2022-09-16T17:44:06;12.00;99.90
8914;DHT22;4492;48.736;9.092;2022-09-16T17:46:32;11.90;99.90
8914;DHT22;4492;48.736;9.092;2022-09-16T17:49:04;11.90;99.90
8914;DHT22;4492;48.736;9.092;2022-09-16T17:51:31;11.60;99.90
8914;DHT22;4492;48.736;9.092;2022-09-16T17:53:57;11.20;99.90
8914;DHT22;4492;48.736;9.092;2022-09-16T17:56:23;10.90;99.90
8914;DHT22;4492;48.736;9.092;2022-09-16T17:58:50;10.60;99.90
8914;DHT22;4492;48.736;9.092;2022-09-16T18:01:19;10.40;99.90
8914;DHT22;4492;48.736;9.092;2022-09-16T18:03:48;10.40;99.90
8914;DHT22;4492;48.736;9.092;2022-09-16T18:06:24;10.20;99.90
8914;DHT22;4492;48.736;9.092;2022-09-16T18:08:51;10.20;99.90
8914;DHT22;4492;48.736;9.092;2022-09-16T18:11:17;10.10;99.90
8914;DHT22;4492;48.736;9.092;2022-09-16T18:13:43;10.10;99.90
8914;DHT22;4492;48.736;9.092;2022-09-16T18:16:16;10.10;99.90
8914;DHT22;4492;48.736;9.092;2022-09-16T18:18:43;10.10;99.90
8914;DHT22;4492;48.736;9.092;2022-09-16T18:21:12;10.20;99.90
8914;DHT22;4492;48.736;9.092;2022-09-16T18:23:44;10.20;99.90
8914;DHT22;4492;48.736;9.092;2022-09-16T18:26:12;10.10;99.90
8914;DHT22;4492;48.736;9.092;2022-09-16T18:28:40;10.20;99.90
8914;DHT22;4492;48.736;9.092;2022-09-16T18:31:11;10.00;99.90
8914;DHT22;4492;48.736;9.092;2022-09-16T18:33:37;10.10;99.90
8914;DHT22;4492;48.736;9.092;2022-09-16T18:36:08;10.20;99.90
8914;DHT22;4492;48.736;9.092;2022-09-16T18:38:35;10.20;99.90
8914;DHT22;4492;48.736;9.092;2022-09-16T18:41:13;10.20;99.90
8914;DHT22;4492;48.736;9.092;2022-09-16T18:43:43;10.20;99.90
8914;DHT22;4492;48.736;9.092;2022-09-16T18:46:11;10.10;99.90
8914;DHT22;4492;48.736;9.092;2022-09-16T18:48:37;10.10;99.90
8914;DHT22;4492;48.736;9.092;2022-09-16T18:51:03;10.10;99.90
8914;DHT22;4492;48.736;9.092;2022-09-16T18:53:30;10.00;99.90
8914;DHT22;4492;48.736;9.092;2022-09-16T18:55:55;10.00;99.90
8914;DHT22;4492;48.736;9.092;2022-09-16T18:58:21;10.00;99.90
8914;DHT22;4492;48.736;9.092;2022-09-16T19:00:47;10.00;99.90
8914;DHT22;4492;48.736;9.092;2022-09-16T19:03:14;9.90;99.90
8914;DHT22;4492;48.736;9.092;2022-09-16T19:05:40;9.80;99.90
8914;DHT22;4492;48.736;9.092;2022-09-16T19:08:05;9.70;99.90